Skip Navigation Linkwww.weather.gov 
NOAA logo - Select to go to the NOAA homepage National Weather Service
 Headquarters Office   NWS logo
NWS Office of the Chief Information Officer/Telecommunication Operations Center
 
   

Current Weather Conditions:
Entebbe Airport, Uganda

(HUEN) 00-03N 032-27E 1155M

Conditions at

2014.10.31 2000 UTC
Wind from the NNW (330 degrees) at 3 MPH (3 KT)
Visibility greater than 7 mile(s)
Sky conditions mostly cloudy
Weather Cumulonimbus clouds observed
Temperature 69 F (21 C)
Dew Point 66 F (19 C)
Relative Humidity 88%
Pressure (altimeter) 29.97 in. Hg (1015 hPa)
ob HUEN 312000Z 33003KT 9999 FEW020 FEW022CB BKN140 21/19 Q1015.6=HUEN 311900Z 36003KT 9999 FEW021 FEW023CB BKN200 21/20 Q1016.0

24 Hour Summary

Time
EDT (UTC)
Temperature
F (C)
Dew Point
F (C)
Pressure
Inches (hPa)
Wind
MPH
Weather
Latest 4 PM (20) Oct 31 69 (21) 66 (19) 29.97 (1015) NNW 3
3 PM (19) No Data
2 PM (18) Oct 31 73 (23) 66 (19) 29.97 (1015) N 3
1 PM (17) Oct 31 71 (22) 66 (19) 29.97 (1015) E 2
Noon (16) Oct 31 73 (23) 62 (17) 29.94 (1014) SE 6
11 AM (15) Oct 31 75 (24) 66 (19) 29.94 (1014) S 8
10 AM (14) No Data
9 AM (13) No Data
8 AM (12) Oct 31 78 (26) 64 (18) 29.94 (1014) S 6
7 AM (11) No Data
6 AM (10) Oct 31 77 (25) 68 (20) 30.00 (1016) NW 6
5 AM (9) Oct 31 75 (24) 66 (19) 30.03 (1017) NE 2
4 AM (8) Oct 31 71 (22) 64 (18) 30.03 (1017) NNE 6
3 AM (7) No Data
2 AM (6) Oct 31 68 (20) 64 (18) 30.06 (1018) N 3
1 AM (5) Oct 31 66 (19) 64 (18) 30.03 (1017) NNE 8 light rain
Midnight (4) Oct 31 66 (19) 66 (19) 30.03 (1017) NNE 9
11 PM (3) Oct 30 68 (20) 66 (19) 30.00 (1016) N 7 light rain
10 PM (2) No Data
9 PM (1) No Data
8 PM (0) No Data
7 PM (23) Oct 30 69 (21) 66 (19) 29.97 (1015) NNW 5
6 PM (22) No Data
Oldest 5 PM (21) Oct 30 69 (21) 66 (19) 30.00 (1016) SW 3
Time
EDT (UTC)
Temperature
F(C)
Dew Point
F(C)
Pressure
Inches(hPa)
Wind
(MPH)
Weather

The information presented here is taken from products produced by the U.S. National Weather Service and other national and international agencies




US Dept of Commerce
National Oceanic and Atmospheric Administration
National Weather Service
1325 East West Highway
Silver Spring, MD 20910
Page Author: NWS Internet Services Team
Disclaimer
Feedback
Privacy Notice
Credits